Terminal Aerodrome Forecast
Issued by NWS

Home | Current Version | Previous Version | Text Only | Print | Product List | Glossary On
Versions: 1 2 3 4 5 6 7 8 9 10 11 12 13 14 15 16 17 18 19 20 21 22 23 24 25 26
441
FTUS45 KLKN 242324
TAFTPH
TAF
KTPH 242324Z 2500/2524 18013G23KT P6SM VCTS BKN100CB
     FM250300 19008KT P6SM VCTS SCT070CB BKN100
     FM251200 VRB06KT P6SM VCSH SCT060 BKN120
     FM251900 18010G20KT P6SM VCTS SCT070CB BKN120=

USA.gov is the U.S. government's official web portal to all federal, state and local government web resources and services.